Time;durP1;ratioP1;P1;durP2;ratioP2;P2;SDS_P1;SDS_P2;PMS_P1;PMS_P2;Temp;Humidity;BMP_temperature;BMP_pressure;BME280_temperature;BME280_humidity;BME280_pressure;Samples;Min_cycle;Max_cycle;Signal;HPM_P1;HPM_P2
2022/01/28 00:02:33;;;;;;;13.20;2.80;;;;;;;5.24;100.00;103156.59;5036115;28;20080;-79
2022/01/28 00:05:04;;;;;;;19.75;3.08;;;;;;;5.21;100.00;103153.88;5033611;28;20315;-71
2022/01/28 00:07:32;;;;;;;7.97;2.67;;;;;;;5.27;100.00;103160.19;5035283;28;20659;-71
2022/01/28 00:10:00;;;;;;;6.40;2.05;;;;;;;5.18;100.00;103160.84;5013281;28;20254;-69
2022/01/28 00:12:30;;;;;;;9.30;2.50;;;;;;;5.11;100.00;103164.16;5034533;28;20110;-71
2022/01/28 00:15:06;;;;;;;11.30;2.60;;;;;;;5.30;100.00;103165.56;5035207;28;20103;-71
2022/01/28 00:18:05;;;;;;;10.43;2.45;;;;;;;5.33;100.00;103165.63;5016250;28;20055;-69
2022/01/28 00:38:07;;;;;;;13.93;2.60;;;;;;;5.27;100.00;103161.06;5034172;28;20095;-79
2022/01/28 00:40:35;;;;;;;10.25;2.60;;;;;;;5.28;100.00;103173.47;5037585;28;20049;-80
2022/01/28 00:43:06;;;;;;;12.10;1.98;;;;;;;5.18;100.00;103174.97;5039594;28;20052;-78
2022/01/28 00:45:34;;;;;;;13.07;2.50;;;;;;;5.18;100.00;103174.97;5042352;28;20059;-79
2022/01/28 00:48:02;;;;;;;12.05;2.42;;;;;;;5.08;100.00;103186.16;5039438;28;20144;-80
2022/01/28 00:50:30;;;;;;;10.07;2.17;;;;;;;5.01;100.00;103185.06;5042042;28;20056;-80
2022/01/28 00:52:59;;;;;;;9.45;3.05;;;;;;;5.02;100.00;103201.84;5039762;28;20080;-77
2022/01/28 00:55:27;;;;;;;8.80;2.30;;;;;;;5.04;100.00;103194.88;5039713;28;20158;-80
2022/01/28 00:57:55;;;;;;;13.60;2.10;;;;;;;5.19;100.00;103205.88;5037867;28;20454;-80
2022/01/28 01:00:23;;;;;;;18.77;2.78;;;;;;;5.09;100.00;103202.91;5037366;28;20095;-80
2022/01/28 01:02:50;;;;;;;11.85;2.25;;;;;;;5.11;100.00;103196.81;5038973;28;20163;-80
2022/01/28 01:05:18;;;;;;;14.20;2.60;;;;;;;5.19;100.00;103192.66;5035614;28;20162;-80
2022/01/28 01:07:46;;;;;;;10.55;2.78;;;;;;;5.23;100.00;103198.91;5039240;28;20122;-78
2022/01/28 01:10:17;;;;;;;14.50;2.33;;;;;;;5.05;100.00;103197.53;5038506;28;20052;-70
2022/01/28 01:12:47;;;;;;;12.10;3.03;;;;;;;4.97;100.00;103196.44;5037912;28;20049;-71
2022/01/28 01:15:21;;;;;;;14.75;2.40;;;;;;;4.99;100.00;103196.47;5037335;28;20056;-71
2022/01/28 01:17:59;;;;;;;10.40;2.97;;;;;;;4.92;100.00;103187.47;5038058;28;20049;-72
2022/01/28 01:20:42;;;;;;;14.25;2.42;;;;;;;4.88;100.00;103189.97;5035883;28;20048;-70
2022/01/28 01:23:13;;;;;;;10.95;2.17;;;;;;;4.99;100.00;103207.06;5038786;28;20045;-71
2022/01/28 01:25:46;;;;;;;12.25;2.60;;;;;;;5.00;100.00;103204.44;5034057;28;20053;-71
2022/01/28 01:28:18;;;;;;;17.60;3.03;;;;;;;4.92;100.00;103200.69;5036195;28;20053;-71
2022/01/28 01:30:46;;;;;;;18.70;3.47;;;;;;;4.89;100.00;103207.63;5035929;28;20180;-71
2022/01/28 01:33:18;;;;;;;6.88;2.30;;;;;;;4.93;100.00;103221.00;5035598;28;20060;-70
2022/01/28 01:35:47;;;;;;;13.38;2.70;;;;;;;5.03;100.00;103225.69;5039091;28;20041;-70
2022/01/28 01:38:15;;;;;;;14.55;2.35;;;;;;;5.07;100.00;103237.28;5036694;28;20049;-78
2022/01/28 01:40:46;;;;;;;14.32;2.63;;;;;;;5.03;100.00;103238.94;5039301;28;20432;-77
2022/01/28 01:43:27;;;;;;;7.97;2.40;;;;;;;4.96;100.00;103244.91;5036404;28;20563;-77
2022/01/28 01:46:16;;;;;;;9.15;2.40;;;;;;;4.97;100.00;103249.34;5037362;28;20144;-77
2022/01/28 01:54:15;;;;;;;10.38;2.80;;;;;;;5.05;100.00;103247.81;5037379;28;20084;-77
2022/01/28 01:56:43;;;;;;;11.07;2.85;;;;;;;5.13;100.00;103252.44;5035851;28;20111;-79
2022/01/28 01:59:12;;;;;;;14.55;2.80;;;;;;;5.08;100.00;103259.38;5039018;28;20617;-74
2022/01/28 02:01:40;;;;;;;13.27;3.05;;;;;;;5.10;100.00;103265.59;5035020;28;20048;-72
2022/01/28 02:04:09;;;;;;;14.75;3.67;;;;;;;5.15;100.00;103264.88;5034602;28;20052;-75
2022/01/28 02:06:37;;;;;;;12.65;2.33;;;;;;;5.19;100.00;103266.75;5035055;28;20044;-76
2022/01/28 02:09:06;;;;;;;12.07;2.20;;;;;;;4.89;100.00;103273.78;5034350;28;20144;-74
2022/01/28 02:11:34;;;;;;;3.72;1.75;;;;;;;4.64;100.00;103271.28;5036217;28;20045;-75
2022/01/28 02:14:03;;;;;;;7.95;1.90;;;;;;;4.55;100.00;103271.00;5039466;28;20056;-76
2022/01/28 02:16:32;;;;;;;4.35;1.67;;;;;;;4.54;100.00;103255.97;5035833;28;20497;-76
2022/01/28 02:19:00;;;;;;;6.78;1.85;;;;;;;4.47;100.00;103265.44;5039740;28;20053;-76
2022/01/28 02:21:33;;;;;;;8.52;2.05;;;;;;;4.49;100.00;103260.22;5038011;28;20048;-75
2022/01/28 02:24:04;;;;;;;8.93;2.28;;;;;;;4.53;100.00;103263.84;5037407;28;20045;-75
2022/01/28 02:26:35;;;;;;;10.30;2.10;;;;;;;4.51;100.00;103270.84;5033157;28;20144;-74
2022/01/28 02:29:10;;;;;;;7.80;2.33;;;;;;;4.38;100.00;103261.63;5035059;28;20076;-75
2022/01/28 02:31:40;;;;;;;7.68;1.80;;;;;;;4.30;100.00;103258.72;5039282;28;20603;-74
2022/01/28 02:34:10;;;;;;;9.35;2.10;;;;;;;4.27;100.00;103256.91;5035941;28;20049;-74
2022/01/28 02:36:40;;;;;;;8.82;2.20;;;;;;;4.38;100.00;103259.00;5037044;28;20080;-74
2022/01/28 02:39:10;;;;;;;20.45;3.28;;;;;;;4.49;100.00;103257.56;5036746;28;20453;-73
2022/01/28 02:41:43;;;;;;;12.68;2.78;;;;;;;4.55;100.00;103262.16;5035309;28;20045;-74
2022/01/28 02:44:18;;;;;;;14.27;2.67;;;;;;;4.53;100.00;103262.13;5037436;28;20077;-76
2022/01/28 02:46:57;;;;;;;16.70;3.00;;;;;;;4.54;100.00;103260.38;5033254;28;20075;-74
2022/01/28 02:49:29;;;;;;;6.82;2.50;;;;;;;4.62;100.00;103269.44;5033472;28;20049;-69
2022/01/28 02:51:58;;;;;;;16.05;3.22;;;;;;;4.66;100.00;103256.34;5038575;28;20041;-69
2022/01/28 02:54:26;;;;;;;12.65;3.00;;;;;;;4.65;100.00;103259.84;5035336;28;20438;-74
2022/01/28 02:56:59;;;;;;;17.08;3.80;;;;;;;4.77;100.00;103269.91;5034562;28;20499;-73
2022/01/28 02:59:27;;;;;;;18.27;3.72;;;;;;;4.91;100.00;103272.97;5035203;28;20051;-73
2022/01/28 03:01:55;;;;;;;28.02;5.07;;;;;;;4.85;100.00;103272.78;5035870;28;20041;-72
2022/01/28 03:04:49;;;;;;;10.93;2.65;;;;;;;4.76;100.00;103275.16;5034224;28;20163;-73
2022/01/28 03:07:17;;;;;;;20.23;3.13;;;;;;;4.84;100.00;103284.22;5036240;28;20057;-73
2022/01/28 03:09:52;;;;;;;13.00;2.40;;;;;;;4.77;100.00;103284.91;5036592;28;20044;-73
2022/01/28 03:12:30;;;;;;;17.88;3.80;;;;;;;4.71;100.00;103295.28;5035733;28;20436;-73
2022/01/28 03:15:03;;;;;;;14.13;2.78;;;;;;;4.75;100.00;103300.72;5034504;28;20500;-69
2022/01/28 03:17:54;;;;;;;14.80;3.00;;;;;;;4.71;100.00;103303.22;5035880;28;20079;-69
2022/01/28 03:20:36;;;;;;;17.20;2.60;;;;;;;4.73;100.00;103301.50;5016404;28;20052;-69
2022/01/28 03:23:08;;;;;;;24.23;3.10;;;;;;;4.83;100.00;103293.91;5035342;28;20052;-68
2022/01/28 03:26:00;;;;;;;8.32;2.20;;;;;;;4.78;100.00;103300.78;5033318;28;20199;-69
2022/01/28 03:28:30;;;;;;;8.77;2.35;;;;;;;4.76;100.00;103296.31;5033392;28;20057;-67
2022/01/28 03:30:58;;;;;;;9.52;2.03;;;;;;;4.73;100.00;103294.47;5033673;28;20118;-67
2022/01/28 03:33:26;;;;;;;13.63;2.97;;;;;;;4.63;100.00;103293.28;5031689;28;20045;-67
2022/01/28 03:35:54;;;;;;;8.50;2.05;;;;;;;4.71;100.00;103293.53;5034844;28;20304;-68
2022/01/28 03:38:25;;;;;;;9.30;2.15;;;;;;;4.70;100.00;103298.75;5036187;28;20095;-69
2022/01/28 03:40:55;;;;;;;9.75;2.20;;;;;;;4.57;100.00;103300.13;5034746;28;20064;-69
2022/01/28 03:43:30;;;;;;;13.15;2.65;;;;;;;4.56;100.00;103296.56;5036583;28;20064;-68
2022/01/28 03:45:58;;;;;;;5.32;1.70;;;;;;;4.59;100.00;103296.69;5014325;28;20057;-67
2022/01/28 03:48:27;;;;;;;13.63;2.50;;;;;;;4.54;100.00;103308.84;5018352;28;20067;-67
2022/01/28 03:50:55;;;;;;;11.25;2.45;;;;;;;4.45;100.00;103309.44;5017418;28;20080;-67
2022/01/28 03:53:28;;;;;;;11.05;1.83;;;;;;;4.56;100.00;103320.38;5018020;28;20064;-68
2022/01/28 03:56:00;;;;;;;9.55;2.22;;;;;;;4.61;100.00;103317.88;5034275;28;20172;-67
2022/01/28 03:58:30;;;;;;;14.80;2.65;;;;;;;4.53;100.00;103320.28;5034539;28;20131;-67
2022/01/28 04:00:59;;;;;;;11.48;2.38;;;;;;;4.56;100.00;103323.00;5034633;28;20135;-68
2022/01/28 04:03:46;;;;;;;6.63;2.00;;;;;;;4.48;100.00;103328.06;5031934;28;20485;-67
2022/01/28 04:11:52;;;;;;;10.07;2.83;;;;;;;4.22;100.00;103324.56;5035505;28;20484;-67
2022/01/28 04:14:36;;;;;;;15.07;2.72;;;;;;;4.22;100.00;103331.56;5034731;28;20057;-71
2022/01/28 04:17:20;;;;;;;13.77;2.95;;;;;;;4.21;100.00;103322.75;5038105;28;20056;-72
2022/01/28 04:19:50;;;;;;;15.52;3.05;;;;;;;4.19;100.00;103331.47;5035860;28;20045;-72
2022/01/28 04:22:18;;;;;;;18.98;3.25;;;;;;;4.16;100.00;103332.28;5039111;28;20080;-72
2022/01/28 04:24:48;;;;;;;16.52;2.92;;;;;;;4.13;100.00;103331.28;5040917;28;20552;-73
2022/01/28 04:27:16;;;;;;;11.40;2.40;;;;;;;4.07;100.00;103345.16;5038814;28;20052;-72
2022/01/28 04:29:46;;;;;;;13.40;2.78;;;;;;;4.05;100.00;103345.13;5038301;28;20083;-72
2022/01/28 04:32:14;;;;;;;9.50;2.38;;;;;;;4.11;100.00;103352.34;5040852;28;20087;-73
2022/01/28 04:34:42;;;;;;;6.72;2.08;;;;;;;4.07;100.00;103347.78;5035073;28;20069;-73
2022/01/28 04:37:18;;;;;;;15.07;2.85;;;;;;;4.07;100.00;103347.78;5038558;28;20068;-73
2022/01/28 04:39:52;;;;;;;9.68;2.17;;;;;;;4.13;100.00;103350.66;5037759;28;20076;-74
2022/01/28 04:42:35;;;;;;;;;;;;;;;4.16;100.00;103356.06;5037810;28;20107;-74
2022/01/28 04:45:10;;;;;;;5.97;1.75;;;;;;;4.13;100.00;103361.22;5037891;28;20432;-74
2022/01/28 04:47:46;;;;;;;5.43;1.77;;;;;;;4.05;100.00;103360.06;5035197;28;20076;-74
2022/01/28 04:50:22;;;;;;;7.40;2.05;;;;;;;4.01;100.00;103363.44;5037554;28;20355;-73
2022/01/28 04:53:10;;;;;;;10.10;2.35;;;;;;;3.97;100.00;103361.53;5037142;28;20405;-73
2022/01/28 04:58:32;;;;;;;13.90;2.50;;;;;;;3.83;100.00;103369.88;5038382;28;20432;-73
2022/01/28 05:01:19;;;;;;;15.77;2.58;;;;;;;3.84;100.00;103371.66;5034832;28;20534;-73
2022/01/28 05:04:03;;;;;;;13.07;2.67;;;;;;;3.79;100.00;103372.34;5039774;28;20048;-74
2022/01/28 05:12:43;;;;;;;9.27;2.05;;;;;;;3.85;100.00;103373.47;5038473;28;20048;-67
2022/01/28 05:23:53;;;;;;;11.52;2.47;;;;;;;3.40;100.00;103368.28;5038735;28;20124;-72
2022/01/28 05:26:33;;;;;;;6.70;2.30;;;;;;;3.28;100.00;103371.34;5035199;28;20118;-73
2022/01/28 05:29:02;;;;;;;11.75;2.70;;;;;;;3.19;100.00;103373.63;5038147;28;20084;-73
2022/01/28 05:31:31;;;;;;;6.75;2.30;;;;;;;3.13;100.00;103376.94;5039049;28;20698;-74
2022/01/28 05:34:00;;;;;;;10.57;2.72;;;;;;;2.99;100.00;103386.91;5041693;28;20068;-73
2022/01/28 05:36:29;;;;;;;7.50;2.10;;;;;;;2.90;100.00;103385.69;5037441;28;20063;-72
2022/01/28 05:38:56;;;;;;;8.02;2.22;;;;;;;2.84;100.00;103394.22;5039024;28;20045;-73
2022/01/28 05:41:24;;;;;;;11.38;2.67;;;;;;;2.80;100.00;103395.84;5035157;28;20073;-73
2022/01/28 05:43:52;;;;;;;12.23;3.25;;;;;;;2.67;100.00;103388.25;5037772;28;20049;-73
2022/01/28 05:46:21;;;;;;;14.50;3.13;;;;;;;2.53;100.00;103389.44;5038110;28;20052;-73
2022/01/28 05:48:49;;;;;;;13.63;3.42;;;;;;;2.44;100.00;103400.50;5036008;28;20156;-73
2022/01/28 05:51:18;;;;;;;9.60;2.63;;;;;;;2.43;100.00;103396.97;5034091;28;20053;-73
2022/01/28 05:53:46;;;;;;;15.80;3.63;;;;;;;2.44;100.00;103392.59;5037623;28;20057;-73
2022/01/28 05:56:14;;;;;;;10.30;3.33;;;;;;;2.33;100.00;103393.84;5035695;28;20125;-72
2022/01/28 05:58:42;;;;;;;12.20;3.45;;;;;;;2.22;100.00;103394.28;5037594;28;20057;-74
2022/01/28 06:01:11;;;;;;;8.65;2.80;;;;;;;2.13;100.00;103403.53;5037991;28;20051;-68
2022/01/28 06:03:47;;;;;;;11.82;3.90;;;;;;;2.10;100.00;103417.47;5037070;28;20044;-69
2022/01/28 06:06:19;;;;;;;17.83;5.53;;;;;;;2.10;100.00;103417.47;5036742;28;20053;-68
2022/01/28 06:08:48;;;;;;;17.75;4.60;;;;;;;2.04;100.00;103409.28;5038804;28;20076;-68
2022/01/28 06:11:17;;;;;;;13.43;4.18;;;;;;;1.96;100.00;103416.88;5035269;28;20090;-68
2022/01/28 06:14:11;;;;;;;12.18;3.28;;;;;;;1.93;100.00;103422.00;5035670;28;20417;-69
2022/01/28 06:16:41;;;;;;;10.73;3.15;;;;;;;1.89;100.00;103424.41;5035671;28;20220;-68
2022/01/28 06:19:12;;;;;;;7.40;2.78;;;;;;;2.02;100.00;103425.03;5036447;28;20045;-68
2022/01/28 06:21:41;;;;;;;9.25;2.90;;;;;;;1.95;100.00;103428.22;5036322;28;20041;-68
2022/01/28 06:24:17;;;;;;;14.35;2.80;;;;;;;2.09;100.00;103434.09;5003440;28;20080;-69
2022/01/28 06:26:47;;;;;;;9.77;2.40;;;;;;;1.98;100.00;103428.38;5037536;28;20122;-68
2022/01/28 06:29:17;;;;;;;8.30;2.40;;;;;;;2.00;100.00;103438.97;5036875;28;20053;-68
2022/01/28 06:31:46;;;;;;;8.25;2.60;;;;;;;1.96;100.00;103455.44;5031828;28;20281;-68
2022/01/28 06:34:17;;;;;;;12.30;2.40;;;;;;;1.92;100.00;103456.16;5034147;28;20053;-74
2022/01/28 06:36:45;;;;;;;6.43;2.67;;;;;;;1.86;100.00;103451.53;5035168;28;20071;-72
2022/01/28 06:39:13;;;;;;;8.07;2.85;;;;;;;1.79;100.00;103455.59;5036515;28;20488;-74
2022/01/28 06:41:41;;;;;;;8.52;2.95;;;;;;;1.75;100.00;103469.44;5035177;28;20091;-74
2022/01/28 06:44:10;;;;;;;11.48;3.60;;;;;;;1.70;100.00;103477.97;5035673;28;20132;-74
2022/01/28 06:46:39;;;;;;;13.43;3.72;;;;;;;1.68;100.00;103484.03;5036468;28;20433;-72
2022/01/28 06:49:07;;;;;;;12.00;3.22;;;;;;;1.74;100.00;103493.97;5034113;28;20080;-74
2022/01/28 06:51:41;;;;;;;8.90;3.38;;;;;;;1.61;100.00;103496.84;5032721;28;20060;-67
2022/01/28 06:54:13;;;;;;;10.32;2.85;;;;;;;1.52;100.00;103497.31;5036058;28;20493;-68
2022/01/28 06:56:47;;;;;;;12.10;3.47;;;;;;;1.42;100.00;103509.13;5035609;28;20057;-68
2022/01/28 06:59:17;;;;;;;11.85;4.15;;;;;;;1.46;100.00;103515.44;5035504;28;20679;-69
2022/01/28 07:01:46;;;;;;;12.85;3.85;;;;;;;1.49;100.00;103510.34;5038237;28;20088;-74
2022/01/28 07:04:15;;;;;;;10.40;4.32;;;;;;;1.39;100.00;103511.59;5036286;28;20523;-75
2022/01/28 07:07:09;;;;;;;8.98;3.38;;;;;;;1.29;100.00;103506.72;5034546;28;20408;-75
2022/01/28 07:09:36;;;;;;;14.40;3.65;;;;;;;1.25;100.00;103515.31;5035609;28;21921;-75
2022/01/28 07:12:07;;;;;;;10.85;4.25;;;;;;;1.34;100.00;103514.84;5036384;28;20509;-76
2022/01/28 07:14:44;;;;;;;18.95;5.82;;;;;;;1.32;100.00;103512.16;5033751;28;20938;-75
2022/01/28 07:17:12;;;;;;;11.18;4.38;;;;;;;1.27;100.00;103509.28;5035682;28;20761;-75
2022/01/28 07:19:40;;;;;;;17.15;5.70;;;;;;;1.19;100.00;103507.09;5035668;28;20226;-75
2022/01/28 07:22:10;;;;;;;11.18;4.22;;;;;;;1.18;100.00;103511.47;5036193;28;20056;-75
2022/01/28 07:25:02;;;;;;;17.42;4.30;;;;;;;1.27;100.00;103506.66;5034367;28;20052;-75
2022/01/28 07:27:30;;;;;;;12.95;4.40;;;;;;;1.26;100.00;103509.19;5036606;28;20176;-76
2022/01/28 07:30:22;;;;;;;13.85;3.50;;;;;;;1.32;100.00;103516.50;5033955;28;20056;-75
2022/01/28 07:32:51;;;;;;;9.63;2.92;;;;;;;1.31;100.00;103507.69;5034026;28;20060;-76
2022/01/28 07:35:20;;;;;;;11.68;3.20;;;;;;;1.42;100.00;103518.75;5029934;28;20079;-76
2022/01/28 07:37:49;;;;;;;9.60;3.33;;;;;;;1.42;100.00;103521.41;5035717;28;20055;-76
2022/01/28 07:40:17;;;;;;;9.88;3.15;;;;;;;1.41;100.00;103531.00;5035082;28;20144;-76
2022/01/28 07:42:45;;;;;;;14.02;4.22;;;;;;;1.43;100.00;103528.44;5030610;28;20077;-76
2022/01/28 07:45:15;;;;;;;8.40;3.10;;;;;;;1.40;100.00;103537.09;5035829;28;20512;-76
2022/01/28 07:48:06;;;;;;;12.70;3.33;;;;;;;1.33;100.00;103537.63;5036135;28;20056;-76
2022/01/28 07:50:35;;;;;;;11.38;3.13;;;;;;;1.36;100.00;103542.13;5039084;28;20104;-76
2022/01/28 07:53:05;;;;;;;13.25;4.00;;;;;;;1.32;100.00;103551.59;5041733;28;20509;-76
2022/01/28 07:55:33;;;;;;;11.07;3.17;;;;;;;1.28;100.00;103549.66;5038097;28;20177;-76
2022/01/28 07:58:01;;;;;;;10.25;2.90;;;;;;;1.24;100.00;103552.94;5038306;28;20053;-68
2022/01/28 08:00:29;;;;;;;7.97;2.65;;;;;;;1.33;100.00;103553.44;5041776;28;20209;-68
2022/01/28 08:02:59;;;;;;;10.23;2.72;;;;;;;1.29;100.00;103559.34;5038116;28;20057;-68
2022/01/28 08:05:28;;;;;;;6.45;2.60;;;;;;;1.30;100.00;103564.69;5040005;28;20298;-77
2022/01/28 08:07:56;;;;;;;8.95;3.22;;;;;;;1.26;100.00;103570.63;5035398;28;20056;-76
2022/01/28 08:10:25;;;;;;;14.05;4.07;;;;;;;1.37;100.00;103572.91;5038019;28;20128;-78
2022/01/28 08:12:54;;;;;;;9.88;3.08;;;;;;;1.41;100.00;103572.22;5039898;28;20064;-78
2022/01/28 08:15:22;;;;;;;11.00;3.30;;;;;;;1.37;100.00;103565.91;5040465;28;20083;-77
2022/01/28 08:17:50;;;;;;;15.07;3.65;;;;;;;1.41;100.00;103573.09;5036322;28;20060;-78
2022/01/28 08:20:18;;;;;;;11.30;3.55;;;;;;;1.49;100.00;103574.38;5035581;28;20041;-68
2022/01/28 08:22:48;;;;;;;13.02;4.47;;;;;;;1.59;100.00;103574.84;5037093;28;20401;-69
2022/01/28 08:25:19;;;;;;;15.65;4.57;;;;;;;1.63;100.00;103584.69;5042814;28;20052;-68
2022/01/28 08:27:52;;;;;;;13.52;4.63;;;;;;;1.67;100.00;103579.66;5022707;28;20049;-69
2022/01/28 08:30:24;;;;;;;14.25;4.90;;;;;;;1.70;100.00;103591.16;5022529;28;20052;-69
2022/01/28 08:32:53;;;;;;;12.65;4.60;;;;;;;1.76;100.00;103591.47;5017103;28;20206;-79
2022/01/28 08:35:29;;;;;;;12.55;4.13;;;;;;;1.88;100.00;103593.78;5037729;28;20049;-79
2022/01/28 08:38:00;;;;;;;9.57;4.22;;;;;;;1.93;100.00;103597.53;5036933;28;20048;-80
2022/01/28 08:40:30;;;;;;;13.20;4.57;;;;;;;2.04;100.00;103593.66;5033788;28;20081;-79
2022/01/28 08:42:59;;;;;;;15.80;5.00;;;;;;;2.20;100.00;103596.19;5033520;28;20051;-79
2022/01/28 08:45:28;;;;;;;12.63;4.10;;;;;;;2.38;100.00;103585.63;5038803;28;20060;-79
2022/01/28 08:47:56;;;;;;;10.75;4.50;;;;;;;2.41;100.00;103600.66;5034858;28;20675;-69
2022/01/28 08:50:25;;;;;;;12.90;3.88;;;;;;;2.57;100.00;103597.91;5037847;28;20060;-78
2022/01/28 08:52:53;;;;;;;14.05;4.40;;;;;;;2.71;100.00;103590.59;5037770;28;20085;-79
2022/01/28 08:55:21;;;;;;;16.55;4.65;;;;;;;2.79;100.00;103596.19;5038457;28;20082;-79
2022/01/28 08:57:49;;;;;;;15.95;3.75;;;;;;;2.73;100.00;103588.03;5036992;28;20048;-69
2022/01/28 09:00:22;;;;;;;13.48;3.80;;;;;;;2.74;100.00;103588.09;5021241;28;20174;-79
2022/01/28 09:03:16;;;;;;;13.35;3.35;;;;;;;2.74;100.00;103589.81;5036659;28;20066;-79
2022/01/28 09:05:44;;;;;;;16.33;4.15;;;;;;;2.86;100.00;103587.75;5035882;28;20103;-79
2022/01/28 09:08:15;;;;;;;16.98;4.22;;;;;;;2.93;100.00;103592.44;5035771;28;20187;-69
2022/01/28 09:10:46;;;;;;;19.20;5.18;;;;;;;3.06;100.00;103603.50;5040451;28;20052;-79
2022/01/28 09:13:24;;;;;;;16.80;4.65;;;;;;;3.17;100.00;103602.25;5036812;28;20480;-79
2022/01/28 09:15:56;;;;;;;10.55;3.70;;;;;;;3.26;100.00;103610.53;5036709;28;20041;-78
2022/01/28 09:18:25;;;;;;;15.63;4.68;;;;;;;3.27;100.00;103620.28;5035069;28;20107;-80
2022/01/28 09:20:54;;;;;;;13.55;4.90;;;;;;;3.43;100.00;103613.91;5036148;28;20087;-80
2022/01/28 09:23:22;;;;;;;16.15;5.30;;;;;;;3.50;100.00;103621.22;5037783;28;20485;-78
2022/01/28 09:25:50;;;;;;;20.45;4.22;;;;;;;3.51;100.00;103624.78;5036220;28;20045;-78
2022/01/28 09:28:18;;;;;;;12.27;4.05;;;;;;;3.55;100.00;103617.03;5036704;28;20057;-78
2022/01/28 09:30:46;;;;;;;15.60;4.90;;;;;;;3.70;100.00;103624.69;5037237;28;20080;-77
2022/01/28 09:33:15;;;;;;;17.23;5.05;;;;;;;3.85;100.00;103627.06;5041063;28;20345;-77
2022/01/28 09:35:43;;;;;;;22.83;5.03;;;;;;;4.00;100.00;103632.06;5035976;28;20049;-76
2022/01/28 09:38:11;;;;;;;18.85;4.50;;;;;;;4.05;100.00;103634.88;5040772;28;20057;-76
2022/01/28 09:40:40;;;;;;;23.10;5.00;;;;;;;4.27;100.00;103637.53;5036099;28;20057;-77
2022/01/28 09:43:09;;;;;;;18.52;4.40;;;;;;;4.40;100.00;103630.06;5034686;28;20048;-77
2022/01/28 09:45:37;;;;;;;12.48;4.47;;;;;;;4.53;100.00;103628.78;5033839;28;20543;-77
2022/01/28 09:48:06;;;;;;;22.55;4.40;;;;;;;4.68;100.00;103618.75;5037838;28;20276;-76
2022/01/28 09:50:35;;;;;;;13.68;3.70;;;;;;;4.76;100.00;103627.00;5034662;28;20076;-76
2022/01/28 09:53:03;;;;;;;14.57;3.92;;;;;;;4.95;100.00;103607.38;5037490;28;20072;-75
2022/01/28 09:55:32;;;;;;;15.98;4.10;;;;;;;5.01;100.00;103597.03;5033274;28;20045;-75
2022/01/28 09:58:00;;;;;;;17.00;3.60;;;;;;;5.11;100.00;103593.84;5033531;28;20239;-74
2022/01/28 10:00:33;;;;;;;15.18;4.45;;;;;;;5.17;100.00;103599.34;5038550;28;20147;-74
2022/01/28 10:03:04;;;;;;;11.48;3.28;;;;;;;5.35;100.00;103604.38;5034926;28;20228;-75
2022/01/28 10:05:35;;;;;;;21.98;4.32;;;;;;;5.41;100.00;103604.59;5037466;28;20044;-75
2022/01/28 10:08:10;;;;;;;14.13;3.00;;;;;;;5.49;100.00;103604.81;5035856;28;20125;-69
2022/01/28 10:10:44;;;;;;;12.30;3.50;;;;;;;5.70;100.00;103609.03;5037053;28;20111;-69
2022/01/28 10:13:16;;;;;;;9.23;2.55;;;;;;;5.80;100.00;103613.75;5034750;28;20183;-67
2022/01/28 10:16:00;;;;;;;11.50;3.00;;;;;;;5.93;100.00;103618.59;5036138;28;20334;-67
2022/01/28 10:18:43;;;;;;;14.10;3.22;;;;;;;6.09;100.00;103617.34;5036645;28;20156;-68
2022/01/28 10:21:36;;;;;;;9.80;3.10;;;;;;;6.15;100.00;103625.50;5018353;28;22690;-67
2022/01/28 10:24:18;;;;;;;7.03;2.42;;;;;;;6.24;100.00;103627.53;5037745;28;20066;-75
2022/01/28 10:26:48;;;;;;;11.00;2.60;;;;;;;6.37;100.00;103620.88;5035977;28;20143;-74
2022/01/28 10:29:18;;;;;;;11.10;2.92;;;;;;;6.52;100.00;103633.66;5039903;28;20069;-75
2022/01/28 10:31:55;;;;;;;14.00;2.80;;;;;;;6.56;100.00;103627.63;5038008;28;20044;-69
2022/01/28 10:34:27;;;;;;;9.00;3.22;;;;;;;6.79;100.00;103624.69;5018508;28;20264;-69
2022/01/28 10:37:17;;;;;;;16.38;3.50;;;;;;;7.06;100.00;103613.94;5034154;28;20068;-69
2022/01/28 10:39:48;;;;;;;13.57;3.15;;;;;;;6.98;100.00;103619.06;5038187;28;20135;-69
2022/01/28 10:42:35;;;;;;;13.93;3.40;;;;;;;7.08;100.00;103626.41;5017530;28;20099;-69
2022/01/28 10:45:11;;;;;;;11.70;3.47;;;;;;;7.23;100.00;103625.00;5037004;28;20088;-69
2022/01/28 10:47:42;;;;;;;10.65;3.67;;;;;;;7.23;100.00;103625.91;5036506;28;20049;-69
2022/01/28 10:50:27;;;;;;;8.13;2.78;;;;;;;7.03;100.00;103628.06;5033629;28;20058;-69
2022/01/28 10:53:02;;;;;;;5.88;2.60;;;;;;;7.16;100.00;103625.72;5035753;28;20073;-70
2022/01/28 10:55:32;;;;;;;10.25;2.97;;;;;;;7.17;100.00;103623.09;5034000;28;20206;-70
2022/01/28 10:58:29;;;;;;;17.58;4.75;;;;;;;7.28;100.00;103618.97;5034659;28;20058;-68
2022/01/28 11:00:59;;;;;;;15.48;4.65;;;;;;;7.28;100.00;103610.09;5033631;28;20071;-68
2022/01/28 11:03:30;;;;;;;13.48;3.65;;;;;;;7.40;100.00;103606.84;5017812;28;20154;-68
2022/01/28 11:05:59;;;;;;;12.95;3.80;;;;;;;7.19;100.00;103608.09;5040403;28;20049;-69
2022/01/28 11:08:31;;;;;;;12.30;3.28;;;;;;;7.27;100.00;103609.22;5036335;28;20052;-68
2022/01/28 11:11:03;;;;;;;11.73;3.35;;;;;;;7.60;100.00;103607.38;5032272;28;20072;-69
2022/01/28 11:13:41;;;;;;;15.48;7.07;;;;;;;7.74;100.00;103607.69;5017668;28;20057;-68
2022/01/28 11:16:10;;;;;;;17.02;3.45;;;;;;;7.75;100.00;103605.06;5034787;28;20059;-68
2022/01/28 11:18:40;;;;;;;9.30;2.70;;;;;;;7.86;100.00;103605.31;5035971;28;20094;-68
2022/01/28 11:21:15;;;;;;;11.85;3.33;;;;;;;8.01;100.00;103588.81;5035224;28;20132;-68
2022/01/28 11:23:52;;;;;;;12.25;2.83;;;;;;;8.01;100.00;103579.06;5030603;28;20107;-68
2022/01/28 11:26:24;;;;;;;12.60;2.88;;;;;;;8.09;100.00;103581.00;5032954;28;20135;-68
2022/01/28 11:29:02;;;;;;;13.65;2.95;;;;;;;8.05;100.00;103577.38;5038677;28;20163;-68
2022/01/28 11:31:44;;;;;;;17.35;3.50;;;;;;;8.21;100.00;103570.66;5035939;28;20512;-74
2022/01/28 11:34:22;;;;;;;12.25;2.97;;;;;;;8.09;100.00;103565.03;5032658;28;20053;-74
2022/01/28 11:36:51;;;;;;;9.77;3.95;;;;;;;8.03;100.00;103564.03;5034587;28;20438;-75
2022/01/28 11:39:28;;;;;;;11.52;3.28;;;;;;;8.01;100.00;103570.19;5030417;28;20041;-75
2022/01/28 11:42:01;;;;;;;15.07;3.55;;;;;;;8.23;100.00;103563.59;5031789;28;20216;-75
2022/01/28 11:44:54;;;;;;;15.40;3.90;;;;;;;8.22;100.00;103561.78;5035746;28;20230;-68
2022/01/28 11:47:25;;;;;;;10.65;3.65;;;;;;;8.25;100.00;103561.84;5034154;28;20110;-74
2022/01/28 11:49:55;;;;;;;13.35;4.40;;;;;;;8.31;100.00;103559.34;5031879;28;20102;-75
2022/01/28 11:52:25;;;;;;;11.15;3.78;;;;;;;8.53;100.00;103551.78;5032695;28;20497;-75
2022/01/28 11:54:55;;;;;;;15.93;4.45;;;;;;;8.41;100.00;103550.66;5035058;28;20048;-75
2022/01/28 11:57:26;;;;;;;9.90;3.22;;;;;;;8.62;100.00;103553.75;5030918;28;20057;-69
2022/01/28 12:00:25;;;;;;;15.27;4.47;;;;;;;8.59;100.00;103554.59;5033023;28;20489;-67
2022/01/28 12:02:54;;;;;;;12.05;3.72;;;;;;;8.55;100.00;103548.31;5033856;28;20174;-67
2022/01/28 12:05:47;;;;;;;15.90;3.33;;;;;;;8.47;100.00;103554.34;5032943;28;20136;-67
2022/01/28 12:08:17;;;;;;;11.63;3.80;;;;;;;8.74;100.00;103543.34;5032032;28;20368;-68
2022/01/28 12:10:50;;;;;;;8.30;3.33;;;;;;;8.80;100.00;103524.78;5035013;28;20052;-68
2022/01/28 12:13:21;;;;;;;15.13;4.20;;;;;;;8.78;100.00;103521.22;5034817;28;20103;-70
2022/01/28 12:16:12;;;;;;;9.48;3.85;;;;;;;8.72;100.00;103518.47;5031959;28;20073;-70
2022/01/28 12:18:59;;;;;;;13.23;4.47;;;;;;;8.37;100.00;103508.00;5027890;28;20085;-70
2022/01/28 12:21:28;;;;;;;17.38;4.32;;;;;;;8.64;100.00;103512.09;5032609;28;20065;-70
2022/01/28 12:24:32;;;;;;;12.77;4.18;;;;;;;8.65;100.00;103497.91;5030520;28;20308;-70
2022/01/28 12:27:04;;;;;;;11.57;3.53;;;;;;;8.56;100.00;103502.22;5034898;28;20052;-71
2022/01/28 12:29:35;;;;;;;15.47;4.70;;;;;;;8.80;100.00;103508.81;5033280;28;20049;-68
2022/01/28 12:32:05;;;;;;;11.02;4.10;;;;;;;8.79;100.00;103491.06;5033028;28;20053;-71